Time,TemperatureF,DewpointF,PressureIn,WindDirection,WindDirectionDegrees,WindSpeedMPH,WindSpeedGustMPH,Humidity,HourlyPrecipIn,Conditions,Clouds,dailyrainin,SoftwareType,DateUTC
2013-05-13 00:14:00,48.8,27.9,29.79,North,-999,1.6,-999.0,44,-99.99,,,-99.99,Acu-Link.com,2013-05-13 04:14:00,
2013-05-13 00:29:00,47.9,28.7,29.80,North,-999,1.6,-999.0,47,-99.99,,,-99.99,Acu-Link.com,2013-05-13 04:29:00,
2013-05-13 00:45:00,47.2,29.5,29.80,North,-999,0.0,-999.0,50,-99.99,,,-99.99,Acu-Link.com,2013-05-13 04:45:00,
2013-05-13 01:00:00,45.9,30.7,29.81,North,-999,1.6,-999.0,55,-99.99,,,-99.99,Acu-Link.com,2013-05-13 05:00:00,
2013-05-13 01:15:00,45.3,30.5,29.80,North,-999,0.0,-999.0,56,-99.99,,,-99.99,Acu-Link.com,2013-05-13 05:15:00,
2013-05-13 01:30:00,45.0,30.7,29.82,North,-999,1.6,-999.0,57,-99.99,,,-99.99,Acu-Link.com,2013-05-13 05:30:00,
2013-05-13 01:45:00,44.7,30.4,29.82,North,-999,1.6,-999.0,57,-99.99,,,-99.99,Acu-Link.com,2013-05-13 05:45:00,
2013-05-13 02:01:00,44.5,30.2,29.82,North,-999,1.6,-999.0,57,-99.99,,,-99.99,Acu-Link.com,2013-05-13 06:01:00,
2013-05-13 02:16:00,43.9,29.7,29.82,North,-999,1.6,-999.0,57,-99.99,,,-99.99,Acu-Link.com,2013-05-13 06:16:00,
2013-05-13 02:31:00,42.9,30.4,29.83,North,-999,3.2,-999.0,61,-99.99,,,-99.99,Acu-Link.com,2013-05-13 06:31:00,
2013-05-13 02:46:00,42.7,29.8,29.82,North,-999,3.2,-999.0,60,-99.99,,,-99.99,Acu-Link.com,2013-05-13 06:46:00,
2013-05-13 03:02:00,44.2,29.5,29.83,North,-999,1.6,-999.0,56,-99.99,,,-99.99,Acu-Link.com,2013-05-13 07:02:00,
2013-05-13 03:17:00,44.1,28.5,29.83,North,-999,3.2,-999.0,54,-99.99,,,-99.99,Acu-Link.com,2013-05-13 07:17:00,
2013-05-13 03:32:00,43.4,29.2,29.83,North,-999,1.6,-999.0,57,-99.99,,,-99.99,Acu-Link.com,2013-05-13 07:32:00,
2013-05-13 03:47:00,42.3,30.2,29.82,North,-999,1.6,-999.0,62,-99.99,,,-99.99,Acu-Link.com,2013-05-13 07:47:00,
2013-05-13 04:02:00,41.0,30.5,29.83,North,-999,1.6,-999.0,66,-99.99,,,-99.99,Acu-Link.com,2013-05-13 08:02:00,
2013-05-13 04:18:00,41.5,30.2,29.83,North,-999,1.6,-999.0,64,-99.99,,,-99.99,Acu-Link.com,2013-05-13 08:18:00,
2013-05-13 04:33:00,41.7,30.4,29.83,North,-999,3.2,-999.0,64,-99.99,,,-99.99,Acu-Link.com,2013-05-13 08:33:00,
2013-05-13 04:49:00,41.7,30.4,29.85,North,-999,3.2,-999.0,64,-99.99,,,-99.99,Acu-Link.com,2013-05-13 08:49:00,
2013-05-13 05:04:00,41.9,30.2,29.86,North,-999,4.8,-999.0,63,-99.99,,,-99.99,Acu-Link.com,2013-05-13 09:04:00,
2013-05-13 05:19:00,41.9,30.6,29.85,North,-999,3.2,-999.0,64,-99.99,,,-99.99,Acu-Link.com,2013-05-13 09:19:00,
2013-05-13 05:34:00,41.7,30.8,29.85,North,-999,4.8,-999.0,65,-99.99,,,-99.99,Acu-Link.com,2013-05-13 09:34:00,
2013-05-13 05:49:00,41.9,30.6,29.86,North,-999,4.8,-999.0,64,-99.99,,,-99.99,Acu-Link.com,2013-05-13 09:49:00,
2013-05-13 06:05:00,42.0,30.3,29.87,North,-999,3.2,-999.0,63,-99.99,,,-99.99,Acu-Link.com,2013-05-13 10:05:00,
2013-05-13 06:20:00,42.7,30.2,29.88,North,-999,4.8,-999.0,61,-99.99,,,-99.99,Acu-Link.com,2013-05-13 10:20:00,
2013-05-13 06:38:00,43.2,29.4,29.88,North,-999,3.2,-999.0,58,-99.99,,,-99.99,Acu-Link.com,2013-05-13 10:38:00,
2013-05-13 06:54:00,43.5,30.5,29.89,North,-999,6.4,-999.0,60,-99.99,,,-99.99,Acu-Link.com,2013-05-13 10:54:00,
2013-05-13 07:09:00,43.9,30.5,29.89,North,-999,4.8,-999.0,59,-99.99,,,-99.99,Acu-Link.com,2013-05-13 11:09:00,
2013-05-13 07:24:00,44.6,29.4,29.89,North,-999,4.8,-999.0,55,-99.99,,,-99.99,Acu-Link.com,2013-05-13 11:24:00,
2013-05-13 07:39:00,45.3,29.2,29.91,North,-999,6.4,-999.0,53,-99.99,,,-99.99,Acu-Link.com,2013-05-13 11:39:00,
2013-05-13 07:55:00,46.1,29.9,29.91,North,-999,6.4,-999.0,53,-99.99,,,-99.99,Acu-Link.com,2013-05-13 11:55:00,
2013-05-13 08:10:00,46.4,28.8,29.91,North,-999,6.4,-999.0,50,-99.99,,,-99.99,Acu-Link.com,2013-05-13 12:10:00,
2013-05-13 08:25:00,47.4,29.7,29.92,North,-999,4.8,-999.0,50,-99.99,,,-99.99,Acu-Link.com,2013-05-13 12:25:00,
2013-05-13 08:40:00,48.0,29.8,29.92,North,-999,9.6,-999.0,49,-99.99,,,-99.99,Acu-Link.com,2013-05-13 12:40:00,
2013-05-13 08:55:00,48.8,30.5,29.91,North,-999,6.4,-999.0,49,-99.99,,,-99.99,Acu-Link.com,2013-05-13 12:55:00,
2013-05-13 09:11:00,48.7,29.9,29.91,North,-999,4.8,-999.0,48,-99.99,,,-99.99,Acu-Link.com,2013-05-13 13:11:00,
2013-05-13 09:26:00,49.0,29.7,29.92,North,-999,3.2,-999.0,47,-99.99,,,-99.99,Acu-Link.com,2013-05-13 13:26:00,
2013-05-13 09:41:00,50.1,28.5,29.93,North,-999,4.8,-999.0,43,-99.99,,,-99.99,Acu-Link.com,2013-05-13 13:41:00,
2013-05-13 09:56:00,52.0,30.2,29.92,North,-999,6.4,-999.0,43,-99.99,,,-99.99,Acu-Link.com,2013-05-13 13:56:00,
2013-05-13 10:11:00,50.8,29.1,29.93,North,-999,4.8,-999.0,43,-99.99,,,-99.99,Acu-Link.com,2013-05-13 14:11:00,
2013-05-13 10:27:00,50.3,29.2,29.93,North,-999,6.4,-999.0,44,-99.99,,,-99.99,Acu-Link.com,2013-05-13 14:27:00,
2013-05-13 10:42:00,55.2,33.1,29.93,North,-999,3.2,-999.0,43,-99.99,,,-99.99,Acu-Link.com,2013-05-13 14:42:00,
2013-05-13 10:57:00,54.9,30.4,29.94,North,-999,6.4,-999.0,39,-99.99,,,-99.99,Acu-Link.com,2013-05-13 14:57:00,
2013-05-13 11:12:00,54.0,30.2,29.94,North,-999,8.0,-999.0,40,-99.99,,,-99.99,Acu-Link.com,2013-05-13 15:12:00,
2013-05-13 11:27:00,55.1,32.4,29.94,North,-999,8.0,-999.0,42,-99.99,,,-99.99,Acu-Link.com,2013-05-13 15:27:00,
2013-05-13 11:43:00,54.7,30.2,29.94,North,-999,11.2,-999.0,39,-99.99,,,-99.99,Acu-Link.com,2013-05-13 15:43:00,
2013-05-13 11:58:00,55.9,31.9,29.94,North,-999,4.8,-999.0,40,-99.99,,,-99.99,Acu-Link.com,2013-05-13 15:58:00,
2013-05-13 12:13:00,57.3,33.2,29.94,North,-999,8.0,-999.0,40,-99.99,,,-99.99,Acu-Link.com,2013-05-13 16:13:00,
2013-05-13 12:29:00,55.2,30.7,29.95,North,-999,4.8,-999.0,39,-99.99,,,-99.99,Acu-Link.com,2013-05-13 16:29:00,
2013-05-13 12:44:00,56.2,30.3,29.95,North,-999,6.4,-999.0,37,-99.99,,,-99.99,Acu-Link.com,2013-05-13 16:44:00,
2013-05-13 12:59:00,57.6,31.5,29.95,North,-999,11.2,-999.0,37,-99.99,,,-99.99,Acu-Link.com,2013-05-13 16:59:00,
2013-05-13 13:14:00,56.5,28.5,29.96,North,-999,4.8,-999.0,34,-99.99,,,-99.99,Acu-Link.com,2013-05-13 17:14:00,
2013-05-13 13:29:00,55.8,31.2,29.95,North,-999,6.4,-999.0,39,-99.99,,,-99.99,Acu-Link.com,2013-05-13 17:29:00,
2013-05-13 13:45:00,57.5,28.6,29.95,North,-999,8.0,-999.0,33,-99.99,,,-99.99,Acu-Link.com,2013-05-13 17:45:00,
2013-05-13 14:00:00,56.6,30.0,29.95,North,-999,6.4,-999.0,36,-99.99,,,-99.99,Acu-Link.com,2013-05-13 18:00:00,
2013-05-13 14:15:00,58.0,29.1,29.95,North,-999,4.8,-999.0,33,-99.99,,,-99.99,Acu-Link.com,2013-05-13 18:15:00,
2013-05-13 14:30:00,56.4,28.4,29.95,North,-999,4.8,-999.0,34,-99.99,,,-99.99,Acu-Link.com,2013-05-13 18:30:00,
2013-05-13 14:45:00,56.4,29.1,29.95,North,-999,4.8,-999.0,35,-99.99,,,-99.99,Acu-Link.com,2013-05-13 18:45:00,
2013-05-13 15:01:00,55.4,27.5,29.95,North,-999,4.8,-999.0,34,-99.99,,,-99.99,Acu-Link.com,2013-05-13 19:01:00,
2013-05-13 15:16:00,58.2,29.2,29.94,North,-999,4.8,-999.0,33,-99.99,,,-99.99,Acu-Link.com,2013-05-13 19:16:00,
2013-05-13 15:31:00,59.3,29.5,29.93,North,-999,4.8,-999.0,32,-99.99,,,-99.99,Acu-Link.com,2013-05-13 19:31:00,
2013-05-13 15:47:00,59.1,30.0,29.94,North,-999,3.2,-999.0,33,-99.99,,,-99.99,Acu-Link.com,2013-05-13 19:47:00,
2013-05-13 16:02:00,58.5,28.0,29.93,North,-999,8.0,-999.0,31,-99.99,,,-99.99,Acu-Link.com,2013-05-13 20:02:00,
2013-05-13 16:17:00,57.9,29.0,29.94,North,-999,4.8,-999.0,33,-99.99,,,-99.99,Acu-Link.com,2013-05-13 20:17:00,
2013-05-13 16:32:00,55.9,28.7,29.94,North,-999,3.2,-999.0,35,-99.99,,,-99.99,Acu-Link.com,2013-05-13 20:32:00,
2013-05-13 16:47:00,55.5,29.7,29.94,North,-999,1.6,-999.0,37,-99.99,,,-99.99,Acu-Link.com,2013-05-13 20:47:00,
2013-05-13 17:03:00,55.2,27.3,29.94,North,-999,8.0,-999.0,34,-99.99,,,-99.99,Acu-Link.com,2013-05-13 21:03:00,
2013-05-13 17:18:00,54.5,27.4,29.94,North,-999,1.6,-999.0,35,-99.99,,,-99.99,Acu-Link.com,2013-05-13 21:18:00,
2013-05-13 17:33:00,54.0,28.3,29.95,North,-999,6.4,-999.0,37,-99.99,,,-99.99,Acu-Link.com,2013-05-13 21:33:00,
2013-05-13 17:49:00,54.3,26.5,29.94,North,-999,6.4,-999.0,34,-99.99,,,-99.99,Acu-Link.com,2013-05-13 21:49:00,
2013-05-13 18:04:00,53.2,28.9,29.94,North,-999,4.8,-999.0,39,-99.99,,,-99.99,Acu-Link.com,2013-05-13 22:04:00,
2013-05-13 18:19:00,52.6,26.4,29.95,North,-999,4.8,-999.0,36,-99.99,,,-99.99,Acu-Link.com,2013-05-13 22:19:00,
2013-05-13 18:34:00,52.5,28.3,29.96,North,-999,3.2,-999.0,39,-99.99,,,-99.99,Acu-Link.com,2013-05-13 22:34:00,
2013-05-13 18:49:00,52.3,26.8,29.96,North,-999,4.8,-999.0,37,-99.99,,,-99.99,Acu-Link.com,2013-05-13 22:49:00,
2013-05-13 19:05:00,51.8,26.4,29.96,North,-999,3.2,-999.0,37,-99.99,,,-99.99,Acu-Link.com,2013-05-13 23:05:00,
2013-05-13 19:20:00,51.5,27.4,29.97,North,-999,1.6,-999.0,39,-99.99,,,-99.99,Acu-Link.com,2013-05-13 23:20:00,
2013-05-13 19:35:00,50.9,28.0,29.98,North,-999,1.6,-999.0,41,-99.99,,,-99.99,Acu-Link.com,2013-05-13 23:35:00,
2013-05-13 19:50:00,50.2,28.6,29.98,North,-999,0.0,-999.0,43,-99.99,,,-99.99,Acu-Link.com,2013-05-13 23:50:00,
2013-05-13 20:06:00,49.9,30.0,29.99,North,-999,1.6,-999.0,46,-99.99,,,-99.99,Acu-Link.com,2013-05-14 00:06:00,
2013-05-13 20:21:00,49.6,30.2,29.99,North,-999,0.0,-999.0,47,-99.99,,,-99.99,Acu-Link.com,2013-05-14 00:21:00,
2013-05-13 20:36:00,49.4,29.5,30.00,North,-999,1.6,-999.0,46,-99.99,,,-99.99,Acu-Link.com,2013-05-14 00:36:00,
2013-05-13 20:51:00,49.3,29.9,30.01,North,-999,0.0,-999.0,47,-99.99,,,-99.99,Acu-Link.com,2013-05-14 00:51:00,
2013-05-13 21:07:00,48.9,32.1,30.02,North,-999,0.0,-999.0,52,-99.99,,,-99.99,Acu-Link.com,2013-05-14 01:07:00,
2013-05-13 21:22:00,48.7,30.9,30.02,North,-999,1.6,-999.0,50,-99.99,,,-99.99,Acu-Link.com,2013-05-14 01:22:00,
2013-05-13 21:37:00,48.4,31.1,30.02,North,-999,1.6,-999.0,51,-99.99,,,-99.99,Acu-Link.com,2013-05-14 01:37:00,
2013-05-13 21:52:00,47.5,30.3,30.03,North,-999,3.2,-999.0,51,-99.99,,,-99.99,Acu-Link.com,2013-05-14 01:52:00,
2013-05-13 22:08:00,47.0,30.3,30.03,North,-999,3.2,-999.0,52,-99.99,,,-99.99,Acu-Link.com,2013-05-14 02:08:00,
2013-05-13 22:23:00,46.7,30.0,30.03,North,-999,3.2,-999.0,52,-99.99,,,-99.99,Acu-Link.com,2013-05-14 02:23:00,
2013-05-13 22:38:00,45.9,30.2,30.02,North,-999,3.2,-999.0,54,-99.99,,,-99.99,Acu-Link.com,2013-05-14 02:38:00,
2013-05-13 22:53:00,45.4,29.7,30.02,North,-999,1.6,-999.0,54,-99.99,,,-99.99,Acu-Link.com,2013-05-14 02:53:00,
2013-05-13 23:08:00,44.8,30.5,30.01,North,-999,1.6,-999.0,57,-99.99,,,-99.99,Acu-Link.com,2013-05-14 03:08:00,
2013-05-13 23:24:00,44.2,30.4,30.02,North,-999,3.2,-999.0,58,-99.99,,,-99.99,Acu-Link.com,2013-05-14 03:24:00,
2013-05-13 23:39:00,43.2,30.3,30.01,North,-999,0.0,-999.0,60,-99.99,,,-99.99,Acu-Link.com,2013-05-14 03:39:00,
2013-05-13 23:54:00,42.5,30.0,30.01,North,-999,0.0,-999.0,61,-99.99,,,-99.99,Acu-Link.com,2013-05-14 03:54:00,